Climatologie pour Saint-Brevin les Pins
Jour • Résumé pour avril 18, 2017 Système :  Métrique    Anglais   Mixte
« - 1 jour
+ 1 jour »
Jour Semaine Mois Année Personnalisé
  Maximum : Minimum : Moyenne :
Température sous abri : 17.1 °C 4.7 °C 11.2 °C
Point de rosée : 8.2 °C 1.3 °C 5.3 °C
Humidité : 95 % 46 % 69 %
Vitesse du vent : 17.7 km/h 0.0 km/h 6.3 km/h
Rafale : 27.4 km/h - -
Direction :- - ENE
Pression : 1029.7 hPa 1023.9 hPa -
Précipitations : 0.0 mm    
Historical Graphs
 
 
Tableau de données pour avril 18, 2017
Heure Tempé Pt rosée Pression Vent Vitesse Rafale Humidité Taux pluie (/hr) Soleil
00:00 9.4 °C 6.9 °C 1023.9 hPa Calm   9.7 km/h 84 % 0.0 mm 0 W/m2
00:10 9.7 °C 6.9 °C 1023.9 hPa North 3.2 km/h 9.7 km/h 83 % 0.0 mm 0 W/m2
00:15 9.6 °C 6.9 °C 1023.9 hPa NE 3.2 km/h 9.7 km/h 83 % 0.0 mm 0 W/m2
00:20 9.6 °C 6.7 °C 1023.9 hPa NNE 1.6 km/h 11.3 km/h 82 % 0.0 mm 0 W/m2
00:25 9.5 °C 6.6 °C 1023.9 hPa NE 11.3 km/h 11.3 km/h 82 % 0.0 mm 0 W/m2
00:30 9.5 °C 6.6 °C 1023.9 hPa Calm   11.3 km/h 82 % 0.0 mm 0 W/m2
00:35 9.3 °C 6.4 °C 1023.9 hPa NE 4.8 km/h 11.3 km/h 82 % 0.0 mm 0 W/m2
00:40 9.2 °C 6.3 °C 1023.9 hPa NE 1.6 km/h 9.7 km/h 82 % 0.0 mm 0 W/m2
00:45 8.8 °C 6.1 °C 1024.3 hPa NNE 4.8 km/h 8.0 km/h 83 % 0.0 mm 0 W/m2
00:50 8.6 °C 6.0 °C 1024.3 hPa NNE 4.8 km/h 8.0 km/h 84 % 0.0 mm 0 W/m2
00:55 8.6 °C 6.2 °C 1024.3 hPa NNE 4.8 km/h 8.0 km/h 85 % 0.0 mm 0 W/m2
01:00 8.6 °C 6.2 °C 1024.3 hPa NNE 8.0 km/h 8.0 km/h 85 % 0.0 mm 0 W/m2
01:05 8.6 °C 6.3 °C 1024.3 hPa NNE 3.2 km/h 9.7 km/h 86 % 0.0 mm 0 W/m2
01:10 8.8 °C 6.4 °C 1024.3 hPa NNE 6.4 km/h 9.7 km/h 85 % 0.0 mm 0 W/m2
01:15 8.9 °C 6.5 °C 1024.3 hPa NE 3.2 km/h 9.7 km/h 85 % 0.0 mm 0 W/m2
01:20 8.9 °C 6.6 °C 1024.3 hPa NE 1.6 km/h 9.7 km/h 85 % 0.0 mm 0 W/m2
01:25 8.9 °C 6.6 °C 1024.3 hPa NNE 1.6 km/h 8.0 km/h 85 % 0.0 mm 0 W/m2
01:30 8.9 °C 6.6 °C 1024.3 hPa NNE 4.8 km/h 8.0 km/h 85 % 0.0 mm 0 W/m2
01:35 9.0 °C 6.8 °C 1024.3 hPa NNE 3.2 km/h 6.4 km/h 86 % 0.0 mm 0 W/m2
01:40 8.9 °C 6.7 °C 1024.3 hPa NNE 3.2 km/h 8.0 km/h 86 % 0.0 mm 0 W/m2
01:45 8.9 °C 6.7 °C 1024.3 hPa NE 4.8 km/h 8.0 km/h 86 % 0.0 mm 0 W/m2
01:50 9.1 °C 6.8 °C 1024.3 hPa Calm   8.0 km/h 86 % 0.0 mm 0 W/m2
01:55 9.1 °C 6.9 °C 1024.3 hPa Calm   6.4 km/h 86 % 0.0 mm 0 W/m2
02:00 9.1 °C 7.0 °C 1024.6 hPa North 4.8 km/h 8.0 km/h 87 % 0.0 mm 0 W/m2
02:05 9.2 °C 6.9 °C 1024.6 hPa NE 1.6 km/h 8.0 km/h 86 % 0.0 mm 0 W/m2
02:10 9.3 °C 7.1 °C 1024.6 hPa Calm   8.0 km/h 86 % 0.0 mm 0 W/m2
02:15 9.4 °C 7.0 °C 1024.6 hPa NNE 3.2 km/h 11.3 km/h 85 % 0.0 mm 0 W/m2
02:20 9.6 °C 7.0 °C 1024.3 hPa ENE 3.2 km/h 11.3 km/h 84 % 0.0 mm 0 W/m2
02:25 9.7 °C 6.9 °C 1024.3 hPa ENE 1.6 km/h 11.3 km/h 83 % 0.0 mm 0 W/m2
02:30 9.7 °C 6.9 °C 1024.6 hPa ENE 11.3 km/h 11.3 km/h 83 % 0.0 mm 0 W/m2
02:35 9.7 °C 6.8 °C 1024.6 hPa ENE 3.2 km/h 11.3 km/h 82 % 0.0 mm 0 W/m2
02:40 9.7 °C 6.7 °C 1024.6 hPa Calm   11.3 km/h 82 % 0.0 mm 0 W/m2
02:45 9.6 °C 6.9 °C 1024.6 hPa ENE 1.6 km/h 11.3 km/h 83 % 0.0 mm 0 W/m2
02:50 9.6 °C 6.8 °C 1024.6 hPa East 3.2 km/h 11.3 km/h 83 % 0.0 mm 0 W/m2
03:00 9.3 °C 6.6 °C 1024.6 hPa NE 9.7 km/h 11.3 km/h 83 % 0.0 mm 0 W/m2
03:05 9.2 °C 6.4 °C 1024.6 hPa ENE 4.8 km/h 11.3 km/h 83 % 0.0 mm 0 W/m2
03:10 8.9 °C 6.3 °C 1024.6 hPa East 1.6 km/h 9.7 km/h 84 % 0.0 mm 0 W/m2
03:15 8.6 °C 6.0 °C 1024.6 hPa Calm   8.0 km/h 84 % 0.0 mm 0 W/m2
03:20 8.2 °C 6.0 °C 1024.3 hPa Calm   6.4 km/h 86 % 0.0 mm 0 W/m2
03:25 8.1 °C 6.0 °C 1024.3 hPa ENE 1.6 km/h 6.4 km/h 87 % 0.0 mm 0 W/m2
03:30 7.9 °C 5.9 °C 1024.3 hPa ENE 1.6 km/h 9.7 km/h 87 % 0.0 mm 0 W/m2
03:35 7.8 °C 5.8 °C 1024.3 hPa ENE 1.6 km/h 9.7 km/h 87 % 0.0 mm 0 W/m2
03:40 7.6 °C 5.6 °C 1024.3 hPa ENE 1.6 km/h 8.0 km/h 87 % 0.0 mm 0 W/m2
03:45 7.3 °C 5.3 °C 1024.3 hPa Calm   4.8 km/h 87 % 0.0 mm 0 W/m2
03:50 7.0 °C 5.3 °C 1024.3 hPa ENE 3.2 km/h 4.8 km/h 89 % 0.0 mm 0 W/m2
03:55 6.9 °C 5.2 °C 1024.3 hPa ENE 4.8 km/h 4.8 km/h 89 % 0.0 mm 0 W/m2
04:00 6.8 °C 5.1 °C 1024.3 hPa Calm   4.8 km/h 89 % 0.0 mm 0 W/m2
04:05 6.6 °C 5.1 °C 1024.3 hPa Calm   4.8 km/h 90 % 0.0 mm 0 W/m2
04:10 6.6 °C 5.0 °C 1024.3 hPa Calm   3.2 km/h 90 % 0.0 mm 0 W/m2
04:15 6.3 °C 4.9 °C 1024.3 hPa Calm   3.2 km/h 91 % 0.0 mm 0 W/m2
04:20 6.1 °C 4.7 °C 1024.3 hPa Calm   3.2 km/h 91 % 0.0 mm 0 W/m2
04:25 5.9 °C 4.5 °C 1024.3 hPa Calm   3.2 km/h 91 % 0.0 mm 0 W/m2
04:30 5.7 °C 4.3 °C 1024.3 hPa Calm   3.2 km/h 91 % 0.0 mm 0 W/m2
04:40 5.3 °C 4.1 °C 1024.3 hPa Calm   4.8 km/h 92 % 0.0 mm 0 W/m2
04:45 5.3 °C 4.3 °C 1024.3 hPa NE 1.6 km/h 3.2 km/h 93 % 0.0 mm 0 W/m2
04:50 5.4 °C 4.3 °C 1024.3 hPa Calm   4.8 km/h 93 % 0.0 mm 0 W/m2
04:55 5.4 °C 4.4 °C 1024.3 hPa NE 1.6 km/h 4.8 km/h 93 % 0.0 mm 0 W/m2
05:00 5.4 °C 4.4 °C 1024.3 hPa Calm   6.4 km/h 93 % 0.0 mm 0 W/m2
05:05 5.4 °C 4.5 °C 1024.3 hPa Calm   6.4 km/h 94 % 0.0 mm 0 W/m2
05:10 5.4 °C 4.6 °C 1024.6 hPa NNE 3.2 km/h 6.4 km/h 94 % 0.0 mm 0 W/m2
05:20 5.2 °C 4.3 °C 1024.6 hPa Calm   4.8 km/h 94 % 0.0 mm 0 W/m2
05:25 5.2 °C 4.3 °C 1024.6 hPa Calm   3.2 km/h 94 % 0.0 mm 0 W/m2
05:30 5.2 °C 4.3 °C 1024.6 hPa NNE 1.6 km/h 4.8 km/h 94 % 0.0 mm 0 W/m2
05:35 5.2 °C 4.3 °C 1024.6 hPa Calm   4.8 km/h 94 % 0.0 mm 0 W/m2
05:40 5.2 °C 4.3 °C 1024.6 hPa Calm   4.8 km/h 94 % 0.0 mm 0 W/m2
05:50 5.1 °C 4.2 °C 1024.6 hPa NE 4.8 km/h 4.8 km/h 94 % 0.0 mm 0 W/m2
05:55 5.0 °C 4.1 °C 1024.6 hPa Calm   4.8 km/h 94 % 0.0 mm 0 W/m2
06:00 5.1 °C 4.3 °C 1024.6 hPa Calm   4.8 km/h 95 % 0.0 mm 0 W/m2
06:05 4.8 °C 3.9 °C 1024.6 hPa Calm   4.8 km/h 94 % 0.0 mm 0 W/m2
06:10 4.7 °C 3.8 °C 1024.6 hPa Calm   6.4 km/h 94 % 0.0 mm 0 W/m2
06:15 4.8 °C 4.0 °C 1024.9 hPa ENE 1.6 km/h 6.4 km/h 95 % 0.0 mm 0 W/m2
06:20 4.8 °C 4.1 °C 1024.9 hPa ENE 3.2 km/h 8.0 km/h 95 % 0.0 mm 0 W/m2
06:25 4.9 °C 4.2 °C 1024.9 hPa NNE 4.8 km/h 8.0 km/h 95 % 0.0 mm 0 W/m2
06:30 4.9 °C 4.2 °C 1024.9 hPa NE 3.2 km/h 9.7 km/h 95 % 0.0 mm 0 W/m2
06:35 4.8 °C 4.1 °C 1024.9 hPa Calm   9.7 km/h 95 % 0.0 mm 0 W/m2
06:40 4.9 °C 4.2 °C 1024.9 hPa NNE 3.2 km/h 8.0 km/h 95 % 0.0 mm 0 W/m2
06:45 4.8 °C 4.1 °C 1024.9 hPa NNE 3.2 km/h 9.7 km/h 95 % 0.0 mm 0 W/m2
06:50 4.8 °C 4.0 °C 1025.3 hPa NE 8.0 km/h 9.7 km/h 95 % 0.0 mm 0 W/m2
06:55 4.9 °C 4.2 °C 1025.3 hPa Calm   8.0 km/h 95 % 0.0 mm 0 W/m2
07:00 4.9 °C 4.2 °C 1025.3 hPa Calm   8.0 km/h 95 % 0.0 mm 0 W/m2
07:05 5.1 °C 4.3 °C 1025.3 hPa Calm   6.4 km/h 95 % 0.0 mm 0 W/m2
07:10 5.1 °C 4.4 °C 1025.6 hPa ENE 4.8 km/h 8.0 km/h 95 % 0.0 mm 0 W/m2
07:15 5.2 °C 4.4 °C 1025.6 hPa ENE 3.2 km/h 8.0 km/h 95 % 0.0 mm 0 W/m2
07:20 5.1 °C 4.2 °C 1025.6 hPa ENE 3.2 km/h 8.0 km/h 94 % 0.0 mm 5 W/m2
07:25 5.0 °C 4.1 °C 1025.3 hPa Calm   8.0 km/h 94 % 0.0 mm 7 W/m2
07:30 5.0 °C 4.1 °C 1025.6 hPa Calm   8.0 km/h 94 % 0.0 mm 11 W/m2
07:35 5.1 °C 4.2 °C 1025.6 hPa East 3.2 km/h 8.0 km/h 94 % 0.0 mm 12 W/m2
07:40 5.1 °C 4.2 °C 1025.6 hPa ENE 3.2 km/h 6.4 km/h 94 % 0.0 mm 16 W/m2
07:45 5.2 °C 4.3 °C 1025.6 hPa NE 4.8 km/h 8.0 km/h 94 % 0.0 mm 18 W/m2
07:50 5.3 °C 4.4 °C 1025.6 hPa NNE 6.4 km/h 14.5 km/h 94 % 0.0 mm 19 W/m2
07:55 5.5 °C 4.5 °C 1026.0 hPa NE 8.0 km/h 14.5 km/h 93 % 0.0 mm 23 W/m2
08:00 5.7 °C 4.6 °C 1026.0 hPa ENE 4.8 km/h 14.5 km/h 93 % 0.0 mm 25 W/m2
08:05 5.8 °C 4.7 °C 1026.0 hPa ENE 6.4 km/h 14.5 km/h 93 % 0.0 mm 26 W/m2
08:10 6.0 °C 4.8 °C 1026.0 hPa NE 8.0 km/h 14.5 km/h 92 % 0.0 mm 28 W/m2
08:15 6.1 °C 4.9 °C 1026.3 hPa NE 4.8 km/h 14.5 km/h 92 % 0.0 mm 30 W/m2
08:20 6.2 °C 4.9 °C 1026.3 hPa ENE 6.4 km/h 16.1 km/h 91 % 0.0 mm 33 W/m2
08:25 6.3 °C 5.0 °C 1026.3 hPa ENE 4.8 km/h 16.1 km/h 91 % 0.0 mm 130 W/m2
08:30 6.5 °C 5.1 °C 1026.3 hPa ENE 6.4 km/h 12.9 km/h 91 % 0.0 mm 151 W/m2
08:35 6.7 °C 5.3 °C 1026.3 hPa East 4.8 km/h 12.9 km/h 91 % 0.0 mm 165 W/m2
08:40 6.9 °C 5.4 °C 1026.3 hPa ENE 3.2 km/h 12.9 km/h 90 % 0.0 mm 179 W/m2
08:45 7.2 °C 5.5 °C 1026.6 hPa NE 3.2 km/h 12.9 km/h 89 % 0.0 mm 199 W/m2
08:50 7.3 °C 5.6 °C 1026.6 hPa NE 3.2 km/h 14.5 km/h 89 % 0.0 mm 218 W/m2
08:55 7.6 °C 5.7 °C 1026.6 hPa NE 3.2 km/h 14.5 km/h 88 % 0.0 mm 234 W/m2
09:00 7.9 °C 5.9 °C 1026.6 hPa East 4.8 km/h 12.9 km/h 87 % 0.0 mm 251 W/m2
09:10 8.4 °C 6.1 °C 1026.6 hPa ENE 6.4 km/h 14.5 km/h 85 % 0.0 mm 281 W/m2
09:15 8.7 °C 6.2 °C 1026.6 hPa ENE 6.4 km/h 14.5 km/h 84 % 0.0 mm 295 W/m2
09:20 8.9 °C 6.2 °C 1026.6 hPa ENE 3.2 km/h 14.5 km/h 83 % 0.0 mm 311 W/m2
09:25 9.2 °C 6.4 °C 1026.6 hPa East 4.8 km/h 16.1 km/h 83 % 0.0 mm 327 W/m2
09:30 9.3 °C 6.4 °C 1027.0 hPa NE 9.7 km/h 16.1 km/h 82 % 0.0 mm 341 W/m2
09:35 9.6 °C 6.5 °C 1027.0 hPa East 3.2 km/h 16.1 km/h 81 % 0.0 mm 357 W/m2
09:40 9.8 °C 6.5 °C 1027.0 hPa East 4.8 km/h 14.5 km/h 80 % 0.0 mm 373 W/m2
09:45 9.9 °C 6.7 °C 1027.0 hPa Calm   12.9 km/h 80 % 0.0 mm 385 W/m2
09:55 10.4 °C 7.1 °C 1027.0 hPa ENE 1.6 km/h 16.1 km/h 80 % 0.0 mm 415 W/m2
10:00 10.6 °C 6.7 °C 1027.0 hPa East 12.9 km/h 14.5 km/h 77 % 0.0 mm 431 W/m2
10:05 10.7 °C 6.8 °C 1027.0 hPa ENE 12.9 km/h 14.5 km/h 77 % 0.0 mm 445 W/m2
10:10 10.7 °C 6.7 °C 1027.0 hPa ESE 3.2 km/h 12.9 km/h 76 % 0.0 mm 461 W/m2
10:15 10.9 °C 6.5 °C 1027.0 hPa ENE 11.3 km/h 16.1 km/h 74 % 0.0 mm 475 W/m2
10:20 10.9 °C 6.3 °C 1027.0 hPa East 14.5 km/h 16.1 km/h 73 % 0.0 mm 489 W/m2
10:25 11.2 °C 7.0 °C 1027.0 hPa ESE 3.2 km/h 16.1 km/h 75 % 0.0 mm 501 W/m2
10:30 11.8 °C 7.3 °C 1027.0 hPa NE 3.2 km/h 12.9 km/h 74 % 0.0 mm 515 W/m2
10:35 11.8 °C 7.1 °C 1027.0 hPa NE 9.7 km/h 17.7 km/h 73 % 0.0 mm 529 W/m2
10:40 11.9 °C 6.8 °C 1027.0 hPa ENE 4.8 km/h 17.7 km/h 71 % 0.0 mm 541 W/m2
10:45 12.2 °C 7.1 °C 1027.0 hPa ENE 4.8 km/h 12.9 km/h 71 % 0.0 mm 552 W/m2
10:50 12.3 °C 7.6 °C 1027.0 hPa NE 4.8 km/h 14.5 km/h 73 % 0.0 mm 568 W/m2
10:55 12.6 °C 7.2 °C 1027.3 hPa ESE 12.9 km/h 16.1 km/h 70 % 0.0 mm 577 W/m2
11:00 12.8 °C 6.4 °C 1027.3 hPa ENE 1.6 km/h 16.1 km/h 65 % 0.0 mm 592 W/m2
11:05 12.9 °C 7.1 °C 1027.3 hPa ENE 6.4 km/h 16.1 km/h 68 % 0.0 mm 601 W/m2
11:10 13.3 °C 7.7 °C 1027.3 hPa ENE 6.4 km/h 11.3 km/h 69 % 0.0 mm 605 W/m2
11:15 13.1 °C 6.4 °C 1027.3 hPa ESE 11.3 km/h 14.5 km/h 64 % 0.0 mm 622 W/m2
11:20 13.6 °C 6.9 °C 1027.3 hPa East 14.5 km/h 19.3 km/h 64 % 0.0 mm 635 W/m2
11:25 13.3 °C 6.6 °C 1027.3 hPa ENE 3.2 km/h 19.3 km/h 64 % 0.0 mm 640 W/m2
11:35 13.6 °C 6.7 °C 1027.3 hPa East 8.0 km/h 20.9 km/h 63 % 0.0 mm 663 W/m2
11:40 13.5 °C 7.3 °C 1027.3 hPa East 8.0 km/h 17.7 km/h 66 % 0.0 mm 724 W/m2
11:45 13.8 °C 6.9 °C 1027.3 hPa ENE 11.3 km/h 14.5 km/h 63 % 0.0 mm 306 W/m2
11:50 13.7 °C 6.8 °C 1027.3 hPa East 11.3 km/h 16.1 km/h 63 % 0.0 mm 708 W/m2
11:55 13.9 °C 6.5 °C 1027.3 hPa ENE 16.1 km/h 16.1 km/h 61 % 0.0 mm 703 W/m2
12:00 14.3 °C 6.9 °C 1027.7 hPa ENE 11.3 km/h 17.7 km/h 61 % 0.0 mm 714 W/m2
12:05 14.1 °C 6.5 °C 1027.3 hPa SE 11.3 km/h 17.7 km/h 60 % 0.0 mm 721 W/m2
12:10 14.4 °C 6.5 °C 1027.3 hPa NNE 4.8 km/h 17.7 km/h 59 % 0.0 mm 740 W/m2
12:15 14.6 °C 7.1 °C 1027.3 hPa NNE 14.5 km/h 19.3 km/h 61 % 0.0 mm 729 W/m2
12:20 14.6 °C 7.1 °C 1027.3 hPa ENE 11.3 km/h 19.3 km/h 61 % 0.0 mm 751 W/m2
12:25 15.0 °C 8.0 °C 1027.3 hPa NE 3.2 km/h 20.9 km/h 63 % 0.0 mm 758 W/m2
12:30 14.9 °C 7.0 °C 1027.7 hPa ENE 14.5 km/h 24.1 km/h 59 % 0.0 mm 775 W/m2
12:35 15.1 °C 6.6 °C 1027.7 hPa ENE 11.3 km/h 24.1 km/h 57 % 0.0 mm 791 W/m2
12:40 14.9 °C 6.2 °C 1027.7 hPa East 16.1 km/h 24.1 km/h 56 % 0.0 mm 789 W/m2
12:45 14.7 °C 6.7 °C 1027.7 hPa NE 6.4 km/h 24.1 km/h 59 % 0.0 mm 795 W/m2
12:50 14.9 °C 6.0 °C 1027.7 hPa East 11.3 km/h 24.1 km/h 55 % 0.0 mm 798 W/m2
12:55 15.2 °C 6.2 °C 1027.7 hPa NE 8.0 km/h 25.7 km/h 55 % 0.0 mm 810 W/m2
13:00 15.2 °C 6.2 °C 1027.7 hPa ENE 6.4 km/h 25.7 km/h 55 % 0.0 mm 802 W/m2
13:05 15.5 °C 7.3 °C 1027.3 hPa NE 9.7 km/h 24.1 km/h 58 % 0.0 mm 824 W/m2
13:10 15.7 °C 7.7 °C 1027.3 hPa ENE 9.7 km/h 24.1 km/h 59 % 0.0 mm 823 W/m2
13:15 15.7 °C 7.2 °C 1027.3 hPa ENE 11.3 km/h 17.7 km/h 57 % 0.0 mm 816 W/m2
13:20 15.7 °C 7.2 °C 1027.3 hPa East 11.3 km/h 17.7 km/h 57 % 0.0 mm 814 W/m2
13:25 15.9 °C 7.4 °C 1027.3 hPa ESE 9.7 km/h 19.3 km/h 57 % 0.0 mm 819 W/m2
13:30 16.2 °C 7.6 °C 1027.3 hPa ENE 11.3 km/h 22.5 km/h 57 % 0.0 mm 814 W/m2
13:35 16.2 °C 6.8 °C 1027.3 hPa East 11.3 km/h 22.5 km/h 54 % 0.0 mm 828 W/m2
13:40 15.8 °C 6.5 °C 1027.3 hPa ENE 17.7 km/h 20.9 km/h 54 % 0.0 mm 844 W/m2
13:45 16.2 °C 7.6 °C 1027.3 hPa ENE 8.0 km/h 20.9 km/h 57 % 0.0 mm 838 W/m2
13:50 16.1 °C 7.1 °C 1027.3 hPa ENE 8.0 km/h 22.5 km/h 55 % 0.0 mm 831 W/m2
13:55 16.3 °C 7.5 °C 1027.7 hPa ENE 3.2 km/h 22.5 km/h 56 % 0.0 mm 853 W/m2
14:00 16.3 °C 7.5 °C 1027.3 hPa North 9.7 km/h 20.9 km/h 56 % 0.0 mm 826 W/m2
14:05 16.3 °C 6.1 °C 1027.3 hPa East 4.8 km/h 22.5 km/h 51 % 0.0 mm 844 W/m2
14:10 16.3 °C 8.0 °C 1027.3 hPa NNE 8.0 km/h 22.5 km/h 58 % 0.0 mm 860 W/m2
14:15 16.6 °C 6.9 °C 1027.3 hPa ENE 6.4 km/h 27.4 km/h 53 % 0.0 mm 958 W/m2
14:20 15.9 °C 8.2 °C 1027.3 hPa East 12.9 km/h 27.4 km/h 60 % 0.0 mm 925 W/m2
14:25 15.8 °C 6.0 °C 1027.3 hPa SE 4.8 km/h 22.5 km/h 52 % 0.0 mm 900 W/m2
14:30 16.4 °C 6.8 °C 1027.3 hPa ENE 3.2 km/h 22.5 km/h 53 % 0.0 mm 946 W/m2
14:35 16.7 °C 6.8 °C 1027.3 hPa NE 1.6 km/h 20.9 km/h 52 % 0.0 mm 946 W/m2
14:40 16.4 °C 7.1 °C 1027.3 hPa NNE 12.9 km/h 24.1 km/h 54 % 0.0 mm 928 W/m2
14:45 15.3 °C 5.5 °C 1027.3 hPa ESE 12.9 km/h 24.1 km/h 52 % 0.0 mm 239 W/m2
14:50 16.2 °C 6.6 °C 1027.3 hPa ENE 17.7 km/h 25.7 km/h 53 % 0.0 mm 990 W/m2
14:55 15.2 °C 6.2 °C 1027.3 hPa NE 17.7 km/h 25.7 km/h 55 % 0.0 mm 199 W/m2
15:00 16.2 °C 6.9 °C 1027.3 hPa North 1.6 km/h 22.5 km/h 54 % 0.0 mm 1013 W/m2
15:05 16.2 °C 6.3 °C 1027.3 hPa ENE 11.3 km/h 24.1 km/h 52 % 0.0 mm 253 W/m2
15:15 15.7 °C 6.2 °C 1027.3 hPa East 1.6 km/h 20.9 km/h 53 % 0.0 mm 213 W/m2
15:20 15.9 °C 6.3 °C 1027.3 hPa NNE 9.7 km/h 17.7 km/h 53 % 0.0 mm 884 W/m2
15:25 16.6 °C 6.9 °C 1027.3 hPa East 16.1 km/h 16.1 km/h 53 % 0.0 mm 914 W/m2
15:30 16.9 °C 6.4 °C 1027.3 hPa East 8.0 km/h 20.9 km/h 50 % 0.0 mm 837 W/m2
15:35 16.6 °C 6.1 °C 1027.3 hPa East 9.7 km/h 20.9 km/h 50 % 0.0 mm 928 W/m2
15:40 16.4 °C 5.1 °C 1027.3 hPa ENE 4.8 km/h 22.5 km/h 47 % 0.0 mm 244 W/m2
15:45 15.4 °C 5.0 °C 1027.3 hPa East 12.9 km/h 24.1 km/h 50 % 0.0 mm 206 W/m2
15:50 15.1 °C 5.0 °C 1027.3 hPa ENE 1.6 km/h 24.1 km/h 51 % 0.0 mm 847 W/m2
15:55 17.1 °C 7.4 °C 1027.3 hPa East 14.5 km/h 24.1 km/h 53 % 0.0 mm 932 W/m2
16:00 16.9 °C 5.8 °C 1027.3 hPa East 8.0 km/h 25.7 km/h 48 % 0.0 mm 325 W/m2
16:05 15.7 °C 5.3 °C 1027.3 hPa ENE 11.3 km/h 25.7 km/h 50 % 0.0 mm 178 W/m2
16:10 14.9 °C 5.1 °C 1027.3 hPa ENE 11.3 km/h 20.9 km/h 52 % 0.0 mm 749 W/m2
16:15 15.9 °C 5.8 °C 1027.3 hPa NE 6.4 km/h 20.9 km/h 51 % 0.0 mm 707 W/m2
16:20 16.4 °C 6.3 °C 1027.0 hPa NE 17.7 km/h 22.5 km/h 51 % 0.0 mm 707 W/m2
16:25 16.6 °C 5.8 °C 1027.0 hPa ENE 8.0 km/h 24.1 km/h 49 % 0.0 mm 759 W/m2
16:30 16.3 °C 4.6 °C 1027.0 hPa NE 9.7 km/h 24.1 km/h 46 % 0.0 mm 763 W/m2
16:35 16.8 °C 6.3 °C 1027.0 hPa East 8.0 km/h 22.5 km/h 50 % 0.0 mm 262 W/m2
16:40 15.7 °C 4.7 °C 1027.0 hPa ENE 6.4 km/h 24.1 km/h 48 % 0.0 mm 216 W/m2
16:45 15.1 °C 4.5 °C 1027.0 hPa NE 4.8 km/h 24.1 km/h 49 % 0.0 mm 221 W/m2
16:50 15.0 °C 5.2 °C 1027.0 hPa NNE 4.8 km/h 19.3 km/h 52 % 0.0 mm 722 W/m2
16:55 16.2 °C 6.0 °C 1027.0 hPa ENE 14.5 km/h 20.9 km/h 51 % 0.0 mm 710 W/m2
17:00 16.6 °C 5.2 °C 1027.0 hPa East 9.7 km/h 24.1 km/h 47 % 0.0 mm 643 W/m2
17:05 16.4 °C 5.4 °C 1027.0 hPa ENE 14.5 km/h 24.1 km/h 48 % 0.0 mm 599 W/m2
17:10 16.7 °C 5.3 °C 1027.0 hPa NE 14.5 km/h 19.3 km/h 47 % 0.0 mm 571 W/m2
17:15 16.7 °C 5.0 °C 1027.0 hPa ENE 3.2 km/h 24.1 km/h 46 % 0.0 mm 679 W/m2
17:20 16.8 °C 5.1 °C 1027.0 hPa East 11.3 km/h 24.1 km/h 46 % 0.0 mm 701 W/m2
17:25 16.1 °C 4.8 °C 1027.0 hPa ESE 16.1 km/h 24.1 km/h 47 % 0.0 mm 132 W/m2
17:30 15.1 °C 4.4 °C 1027.0 hPa ENE 6.4 km/h 25.7 km/h 49 % 0.0 mm 90 W/m2
17:35 14.3 °C 4.3 °C 1027.0 hPa Calm   25.7 km/h 51 % 0.0 mm 123 W/m2
17:40 14.9 °C 5.7 °C 1027.0 hPa East 16.1 km/h 20.9 km/h 54 % 0.0 mm 494 W/m2
17:45 15.4 °C 5.1 °C 1027.0 hPa ENE 16.1 km/h 20.9 km/h 50 % 0.0 mm 485 W/m2
17:50 15.7 °C 4.4 °C 1027.0 hPa East 14.5 km/h 22.5 km/h 47 % 0.0 mm 483 W/m2
17:55 15.7 °C 4.4 °C 1027.0 hPa NNE 6.4 km/h 22.5 km/h 47 % 0.0 mm 496 W/m2
18:00 15.9 °C 5.2 °C 1027.0 hPa NNE 6.4 km/h 22.5 km/h 49 % 0.0 mm 408 W/m2
18:05 15.4 °C 4.2 °C 1026.6 hPa ENE 16.1 km/h 20.9 km/h 47 % 0.0 mm 146 W/m2
18:10 15.5 °C 4.8 °C 1026.6 hPa NE 12.9 km/h 20.9 km/h 49 % 0.0 mm 410 W/m2
18:15 15.8 °C 5.1 °C 1026.6 hPa North 14.5 km/h 20.9 km/h 49 % 0.0 mm 396 W/m2
18:20 15.7 °C 5.0 °C 1026.6 hPa ENE 12.9 km/h 20.9 km/h 49 % 0.0 mm 388 W/m2
18:25 15.8 °C 4.8 °C 1026.6 hPa NE 9.7 km/h 17.7 km/h 48 % 0.0 mm 397 W/m2
18:30 16.0 °C 5.0 °C 1026.6 hPa ENE 6.4 km/h 17.7 km/h 48 % 0.0 mm 438 W/m2
18:35 16.1 °C 4.4 °C 1026.6 hPa ENE 12.9 km/h 20.9 km/h 46 % 0.0 mm 420 W/m2
18:40 16.3 °C 4.7 °C 1026.6 hPa ENE 4.8 km/h 20.9 km/h 46 % 0.0 mm 376 W/m2
18:45 16.2 °C 4.5 °C 1026.6 hPa NE 12.9 km/h 22.5 km/h 46 % 0.0 mm 308 W/m2
18:50 15.6 °C 4.0 °C 1026.6 hPa East 8.0 km/h 22.5 km/h 46 % 0.0 mm 67 W/m2
18:55 14.8 °C 3.9 °C 1026.6 hPa ENE 8.0 km/h 17.7 km/h 48 % 0.0 mm 53 W/m2
19:00 14.6 °C 4.2 °C 1026.6 hPa East 3.2 km/h 17.7 km/h 50 % 0.0 mm 253 W/m2
19:05 14.8 °C 4.8 °C 1026.6 hPa East 11.3 km/h 14.5 km/h 51 % 0.0 mm 244 W/m2
19:10 15.0 °C 4.7 °C 1026.6 hPa East 12.9 km/h 14.5 km/h 50 % 0.0 mm 230 W/m2
19:15 14.9 °C 3.4 °C 1026.6 hPa ENE 4.8 km/h 14.5 km/h 46 % 0.0 mm 216 W/m2
19:20 14.9 °C 4.0 °C 1026.6 hPa ENE 3.2 km/h 14.5 km/h 48 % 0.0 mm 121 W/m2
19:25 15.0 °C 3.5 °C 1026.6 hPa ENE 6.4 km/h 17.7 km/h 46 % 0.0 mm 104 W/m2
19:30 15.1 °C 3.5 °C 1026.6 hPa NE 8.0 km/h 17.7 km/h 46 % 0.0 mm 86 W/m2
19:35 14.9 °C 3.7 °C 1027.0 hPa NE 8.0 km/h 22.5 km/h 47 % 0.0 mm 113 W/m2
19:40 14.8 °C 3.6 °C 1027.0 hPa NE 3.2 km/h 22.5 km/h 47 % 0.0 mm 88 W/m2
19:45 14.7 °C 3.5 °C 1027.0 hPa East 14.5 km/h 22.5 km/h 47 % 0.0 mm 56 W/m2
19:50 14.5 °C 3.9 °C 1027.0 hPa ENE 8.0 km/h 22.5 km/h 49 % 0.0 mm 53 W/m2
19:55 14.2 °C 3.4 °C 1027.0 hPa NE 9.7 km/h 20.9 km/h 48 % 0.0 mm 86 W/m2
20:00 14.0 °C 3.4 °C 1027.0 hPa East 4.8 km/h 20.9 km/h 49 % 0.0 mm 79 W/m2
20:05 13.9 °C 3.9 °C 1027.0 hPa ENE 8.0 km/h 12.9 km/h 51 % 0.0 mm 51 W/m2
20:10 13.7 °C 4.0 °C 1027.0 hPa NE 14.5 km/h 14.5 km/h 52 % 0.0 mm 51 W/m2
20:20 13.4 °C 4.0 °C 1027.0 hPa ENE 11.3 km/h 20.9 km/h 53 % 0.0 mm 30 W/m2
20:25 13.3 °C 4.2 °C 1027.0 hPa ENE 1.6 km/h 20.9 km/h 54 % 0.0 mm 26 W/m2
20:30 13.1 °C 3.7 °C 1027.3 hPa NE 9.7 km/h 17.7 km/h 53 % 0.0 mm 21 W/m2
20:35 13.0 °C 3.6 °C 1027.3 hPa NE 8.0 km/h 17.7 km/h 53 % 0.0 mm 16 W/m2
20:40 12.8 °C 3.7 °C 1027.3 hPa North 9.7 km/h 19.3 km/h 54 % 0.0 mm 12 W/m2
20:45 12.6 °C 3.7 °C 1027.3 hPa NNE 3.2 km/h 19.3 km/h 55 % 0.0 mm 12 W/m2
20:50 12.3 °C 4.0 °C 1027.3 hPa ENE 11.3 km/h 14.5 km/h 57 % 0.0 mm 9 W/m2
20:55 11.9 °C 4.2 °C 1027.3 hPa ENE 6.4 km/h 14.5 km/h 59 % 0.0 mm 5 W/m2
21:00 11.9 °C 3.9 °C 1027.3 hPa NE 8.0 km/h 20.9 km/h 58 % 0.0 mm 0 W/m2
21:05 12.0 °C 4.0 °C 1027.7 hPa NE 11.3 km/h 22.5 km/h 58 % 0.0 mm 0 W/m2
21:10 11.9 °C 4.1 °C 1027.7 hPa NE 8.0 km/h 22.5 km/h 59 % 0.0 mm 0 W/m2
21:15 11.7 °C 4.2 °C 1027.7 hPa NE 1.6 km/h 19.3 km/h 60 % 0.0 mm 0 W/m2
21:20 11.6 °C 4.0 °C 1027.7 hPa North 9.7 km/h 16.1 km/h 60 % 0.0 mm 0 W/m2
21:25 11.7 °C 4.0 °C 1028.0 hPa North 6.4 km/h 25.7 km/h 59 % 0.0 mm 0 W/m2
21:30 11.7 °C 4.0 °C 1028.0 hPa NE 8.0 km/h 25.7 km/h 59 % 0.0 mm 0 W/m2
21:35 11.6 °C 4.0 °C 1028.0 hPa NW 3.2 km/h 22.5 km/h 60 % 0.0 mm 0 W/m2
21:40 11.5 °C 4.0 °C 1028.0 hPa NE 14.5 km/h 22.5 km/h 60 % 0.0 mm 0 W/m2
21:45 11.4 °C 3.9 °C 1028.3 hPa ENE 3.2 km/h 22.5 km/h 60 % 0.0 mm 0 W/m2
21:55 11.2 °C 3.7 °C 1028.7 hPa NNE 14.5 km/h 24.1 km/h 60 % 0.0 mm 0 W/m2
22:00 11.2 °C 3.7 °C 1028.7 hPa NE 6.4 km/h 24.1 km/h 60 % 0.0 mm 0 W/m2
22:05 11.0 °C 3.5 °C 1028.7 hPa NNE 4.8 km/h 24.1 km/h 60 % 0.0 mm 0 W/m2
22:10 10.8 °C 3.3 °C 1028.7 hPa East 8.0 km/h 20.9 km/h 60 % 0.0 mm 0 W/m2
22:15 10.7 °C 3.2 °C 1029.0 hPa NNE 16.1 km/h 19.3 km/h 60 % 0.0 mm 0 W/m2
22:20 10.6 °C 3.1 °C 1029.0 hPa East 8.0 km/h 19.3 km/h 60 % 0.0 mm 0 W/m2
22:25 10.4 °C 3.2 °C 1029.0 hPa NE 4.8 km/h 16.1 km/h 61 % 0.0 mm 0 W/m2
22:30 10.1 °C 2.9 °C 1029.0 hPa ESE 6.4 km/h 17.7 km/h 61 % 0.0 mm 0 W/m2
22:35 10.0 °C 2.8 °C 1029.0 hPa NE 8.0 km/h 17.7 km/h 61 % 0.0 mm 0 W/m2
22:40 9.8 °C 2.4 °C 1029.0 hPa NE 3.2 km/h 20.9 km/h 60 % 0.0 mm 0 W/m2
22:45 9.7 °C 2.5 °C 1029.3 hPa ENE 8.0 km/h 20.9 km/h 61 % 0.0 mm 0 W/m2
22:50 9.6 °C 2.2 °C 1029.3 hPa NE 1.6 km/h 17.7 km/h 60 % 0.0 mm 0 W/m2
22:55 9.4 °C 2.1 °C 1029.3 hPa ENE 1.6 km/h 16.1 km/h 60 % 0.0 mm 0 W/m2
23:00 9.4 °C 1.8 °C 1029.3 hPa ENE 6.4 km/h 17.7 km/h 59 % 0.0 mm 0 W/m2
23:05 9.1 °C 1.5 °C 1029.3 hPa NE 8.0 km/h 17.7 km/h 59 % 0.0 mm 0 W/m2
23:10 8.9 °C 1.6 °C 1029.3 hPa ENE 3.2 km/h 11.3 km/h 60 % 0.0 mm 0 W/m2
23:15 8.7 °C 1.8 °C 1029.7 hPa NE 11.3 km/h 14.5 km/h 62 % 0.0 mm 0 W/m2
23:20 8.7 °C 1.8 °C 1029.7 hPa ENE 1.6 km/h 14.5 km/h 62 % 0.0 mm 0 W/m2
23:25 8.7 °C 1.8 °C 1029.7 hPa ENE 1.6 km/h 12.9 km/h 62 % 0.0 mm 0 W/m2
23:30 8.5 °C 1.6 °C 1029.7 hPa NE 11.3 km/h 16.1 km/h 62 % 0.0 mm 0 W/m2
23:35 8.6 °C 1.5 °C 1029.7 hPa NNE 6.4 km/h 16.1 km/h 61 % 0.0 mm 0 W/m2
23:40 8.5 °C 1.4 °C 1029.7 hPa ENE 8.0 km/h 14.5 km/h 61 % 0.0 mm 0 W/m2
23:45 8.4 °C 1.3 °C 1029.7 hPa NNE 8.0 km/h 16.1 km/h 61 % 0.0 mm 0 W/m2
23:50 8.4 °C 1.3 °C 1029.7 hPa NNE 6.4 km/h 19.3 km/h 61 % 0.0 mm 0 W/m2
23:55 8.3 °C 1.4 °C 1029.7 hPa ENE 4.8 km/h 19.3 km/h 62 % 0.0 mm 0 W/m2
Avec l'autorisation de Weather Underground - 1.75 mb